Aviation Digital Data Service (ADDS)

Output produced by METARs form (1817 UTC 01 October 2014)
found at http://aviationweather.gov/adds/metars/
 
KLFT 011753Z 16006KT 10SM SCT012 BKN018 OVC025 28/24 A2990 RMK AO2 SLP123 60006 T02780244 10278 20244 56012 $